Gouverneur, NY (13642)

11:38 PM EST on December 17, 2014 (GMT -0500)
Village of Gouverneur (Barnes St.) | Change Station
CLOSE
Current Station
Personal Weather Station
Location: Gouverneur, NY
Elevation: 433 ft
Nearby Weather Stations

Elev 433 ft 44.34 °N, 75.47 °W | Updated 11 minutes ago

Overcast
Overcast
33.4 °F
Feels Like 33 °F
N
2.7
Wind Variable Wind from NW

Today
High -- | Low -- °F
--% Chance of Precip.
Yesterday
High -- | Low -- °F
Precip. -- in
7:31 AM 4:23 PM
Waning Crescent, 17% visible
Pressure 29.82 in
Visibility 10.0 miles
Clouds Scattered Clouds 1000 ft
Overcast 1800 ft
Windchill 33 °F
Dew Point 30 °F
Humidity 88%
Rainfall 0.18 in
Snow Depth Not available.
UV 0 out of 12
Pollen .10 out of 12
Air Quality Not available.
Flu Activity Not available.
SPECI KGTB 180418Z AUTO 27008KT 10SM -SN SCT010 OVC018 01/00 A2982 RMK AO2 CIG 012V018

More Conditions Fewer Conditions

Pressure 29.82 in
Visibility 10.0 miles
Clouds Scattered Clouds 1000 ft
Overcast 1800 ft
Windchill 33 °F
Dew Point 30 °F
Humidity 88%
Rainfall 0.18 in
Snow Depth Not available.
UV 0 out of 12
Pollen .10 out of 12
Air Quality Not available.
Flu Activity Not available.
SPECI KGTB 180418Z AUTO 27008KT 10SM -SN SCT010 OVC018 01/00 A2982 RMK AO2 CIG 012V018

More Conditions Fewer Conditions

10-Day Weather Forecast

Almanac

Astronomy

Dec. 17, 2014 Rise Set
Actual Time
Civil Twilight
Nautical Twilight
Astronomical Twilight
Moon
Length of Visible Light
Length of Day
Tomorrow will be .
, % of the Moon is Illuminated

Today's Extremes

State Highs State Lows

Community

WunderPhotos

Upload Photos

1,778,881 photos uploaded!

WunderBlogs® & News

Nearby

Air Quality

  Air Quality AQ Index Pollutant
Not available.

Snow Depth

Station Depth Elevation

Earthquake Activity

City Distance Mag. Time & Date
Minimum magnitude displayed is 2.5.

Coastal Water Temperatures

Place Temperature

Nearby Weather Stations